Flight Track Log - Related Links

Times and Time Zones

All times are in EDT time to prevent confusion due to time zone crossing. See the N12SN flight status page for this flight to view local times or setup timezone preferences in your user account.

Time Position Orientation Groundspeed Altitude Reporting Facility
EDT Latitude Longitude Course Direction KTS MPH feet Rate Location/Type
Sat 03:46:09 PM 41.5253 -81.6703 344° North 107 123 900  Level Cleveland Center
Sat 03:47:34 PM 41.5711 -81.6878 344° North 138 159 2,100 822 Climbing Cleveland Center
Sat 03:48:35 PM 41.5956 -81.7297 308° West 151 174 2,900 787 Climbing Cleveland Center
Sat 03:49:36 PM 41.6056 -81.7828 284° West 151 174 3,700 541 Climbing Cleveland Center
Sat 03:50:37 PM 41.6217 -81.8358 292° West 163 188 4,000 148 Climbing Cleveland Center
Sat 03:51:38 PM 41.6397 -81.9000 291° West 177 204 4,000  Level Cleveland Center
Sat 03:52:39 PM 41.6556 -81.9589 290° West 167 192 4,000  Level Cleveland Center
Sat 03:53:40 PM 41.6717 -82.0203 289° West 168 193 4,000  Level Cleveland Center
Sat 03:54:40 PM 41.6897 -82.0764 293° West 165 190 4,000  Level Cleveland Center
Sat 03:55:41 PM 41.7056 -82.1350 290° West 166 191 4,000  Level Cleveland Center
Sat 03:56:42 PM 41.7214 -82.1911 291° West 168 193 4,000  Level Cleveland Center
Sat 03:57:43 PM 41.7372 -82.2500 290° West 169 194 4,000  Level Cleveland Center
Sat 03:58:44 PM 41.7572 -82.3144 293° West 167 192 4,000  Level Cleveland Center
Sat 03:59:45 PM 41.7708 -82.3761 287° West 170 196 4,000  Level Cleveland Center
Sat 04:00:52 PM 41.7886 -82.4406 290° West 169 194 4,000  Level Cleveland Center
Sat 04:01:59 PM 41.8083 -82.5053 292° West 169 194 4,000  Level Cleveland Center
Sat 04:03:00 PM 41.8242 -82.5614 291° West 169 194 4,000  Level Cleveland Center
Sat 04:04:01 PM 41.8439 -82.6178 295° West 167 192 4,000  Level Cleveland Center
Sat 04:05:02 PM 41.8892 -82.6472 334° Northwest 171 197 4,000  Level Cleveland Center
Sat 04:06:10 PM 41.9347 -82.6711 339° North 167 192 4,000  Level Cleveland Center
Sat 04:07:13 PM 41.9803 -82.6919 341° North 164 189 4,000  Level Cleveland Center
Sat 04:08:06 PM 42.0194 -82.7158 336° Northwest 165 190 4,000  Level Cleveland Center
Sat 04:09:07 PM 42.0539 -82.7561 319° Northwest 166 191 4,000  Level Cleveland Center
Sat 04:10:15 PM 42.0969 -82.7994 323° Northwest 171 197 4,000  Level Cleveland Center
Sat 04:11:10 PM 42.1297 -82.8369 320° Northwest 169 194 4,000  Level Cleveland Center
Sat 04:12:11 PM 42.1683 -82.8775 322° Northwest 171 197 4,000  Level Cleveland Center
Sat 04:13:12 PM 42.2031 -82.9181 319° Northwest 166 191 4,000  Level Cleveland Center
Sat 04:14:08 PM 42.2378 -82.9531 323° Northwest 166 191 4,000  Level Cleveland Center
Sat 04:15:09 PM 42.2722 -82.9936 319° Northwest 165 190 4,000  Level Cleveland Center
Sat 04:16:10 PM 42.3111 -83.0317 324° Northwest 163 188 4,000  Level Cleveland Center
Sat 04:17:17 PM 42.3519 -83.0753 322° Northwest 180 207 4,000  Level Cleveland Center
Sat 04:18:13 PM 42.3844 -83.1131 319° Northwest 174 200 4,000  Level Cleveland Center
Sat 04:19:20 PM 42.4292 -83.1600 322° Northwest 170 196 4,000  Level Cleveland Center
Sat 04:20:21 PM 42.4658 -83.2008 321° Northwest 164 189 4,000  Level Cleveland Center
Sat 04:21:22 PM 42.5003 -83.2417 319° Northwest 166 191 4,000  Level Cleveland Center
Sat 04:22:24 PM 42.5369 -83.2772 324° Northwest 166 191 4,000  Level Cleveland Center
Sat 04:23:25 PM 42.5756 -83.3183 322° Northwest 165 190 4,000  Level Cleveland Center
Sat 04:24:26 PM 42.6103 -83.3536 323° Northwest 161 185 4,000  Level Cleveland Center
Sat 04:26:00 PM 42.6760 -83.4067 329° Northwest  Level FlightAware
Sat 04:33:00 PM 42.9382 -83.7097 304° West  Level FlightAware
Sat 04:34:00 PM 42.9500 -83.7333 304° West  Level FlightAware
Sat 04:35:00 PM 42.9654 -83.7437 304° West  Level Estimated
Sat 04:36:00 PM 42.9654 -83.7437 304° West  Level Estimated
Sat 04:37:00 PM 42.9654 -83.7437 304° West  Level Estimated
Sat 04:38:00 PM 42.9654 -83.7437 304° West  Level Estimated
Sat 04:39:00 PM 42.9654 -83.7437 304° West  Level Estimated
Sat 04:40:00 PM 42.9654 -83.7437 304° West  Level Estimated
Sat 04:41:00 PM 42.9654 -83.7437 304° West  Level Estimated
Sat 04:42:00 PM 42.9654 -83.7437 304° West  Level Estimated
Sat 04:43:00 PM 42.9654 -83.7437 304° West  Level Estimated
Sat 04:44:00 PM 42.9654 -83.7437 304° West  Level Estimated

Login

Don't have an account? Register now (free) for customized features, flight alerts, and more!